createdAt,value
2018-12-05T00:00:36.126Z,0
2018-12-05T00:01:35.886Z,0
2018-12-05T00:02:35.868Z,0
2018-12-05T00:03:35.613Z,0
2018-12-05T00:04:35.617Z,0
2018-12-05T00:05:35.827Z,0
2018-12-05T00:06:35.576Z,0
2018-12-05T00:07:36.110Z,0
2018-12-05T00:08:35.319Z,0
2018-12-05T00:09:36.056Z,0
2018-12-05T00:10:35.802Z,0
2018-12-05T00:11:35.784Z,0
2018-12-05T00:12:36.025Z,0
2018-12-05T00:13:35.768Z,0
2018-12-05T00:14:36.034Z,0
2018-12-05T00:15:36.014Z,0
2018-12-05T00:16:35.333Z,0
2018-12-05T00:17:36.098Z,0
2018-12-05T00:18:35.479Z,0
2018-12-05T00:19:35.993Z,0
2018-12-05T00:20:35.740Z,0
2018-12-05T00:21:35.731Z,0
2018-12-05T00:22:35.282Z,0
2018-12-05T00:23:35.960Z,0
2018-12-05T00:24:35.701Z,0
2018-12-05T00:25:35.934Z,0
2018-12-05T00:26:35.447Z,0
2018-12-05T00:27:35.431Z,0
2018-12-05T00:28:35.679Z,0
2018-12-05T00:29:35.676Z,0
2018-12-05T00:30:35.697Z,0
2018-12-05T00:31:35.903Z,0
2018-12-05T00:32:35.628Z,0
2018-12-05T00:33:35.875Z,0
2018-12-05T00:34:35.390Z,0
2018-12-05T00:35:35.605Z,0
2018-12-05T00:36:35.680Z,0
2018-12-05T00:37:35.352Z,0
2018-12-05T00:38:35.840Z,0
2018-12-05T00:39:35.582Z,0
2018-12-05T00:40:35.335Z,0
2018-12-05T00:41:35.609Z,0
2018-12-05T00:42:35.577Z,0
2018-12-05T00:43:35.564Z,0
2018-12-05T00:44:35.801Z,0
2018-12-05T00:45:35.532Z,0
2018-12-05T00:46:35.280Z,0
2018-12-05T00:47:35.026Z,0
2018-12-05T00:48:35.566Z,0
2018-12-05T00:49:35.865Z,0
2018-12-05T00:50:35.245Z,0
2018-12-05T00:51:35.482Z,0
2018-12-05T00:52:35.228Z,0
2018-12-05T00:53:35.467Z,0
2018-12-05T00:54:35.727Z,0
2018-12-05T00:55:35.714Z,0
2018-12-05T00:56:35.474Z,0
2018-12-05T00:57:35.346Z,0
2018-12-05T00:58:35.824Z,0
2018-12-05T00:59:35.692Z,0
2018-12-05T01:00:35.684Z,0
2018-12-05T01:01:35.167Z,0
2018-12-05T01:02:35.424Z,0
2018-12-05T01:03:35.648Z,0
2018-12-05T01:04:35.401Z,0
2018-12-05T01:05:35.146Z,0
2018-12-05T01:06:35.636Z,0
2018-12-05T01:07:35.403Z,0
2018-12-05T01:08:35.626Z,0
2018-12-05T01:09:35.351Z,0
2018-12-05T01:10:35.112Z,0
2018-12-05T01:11:35.351Z,0
2018-12-05T01:12:35.105Z,0
2018-12-05T01:13:35.581Z,0
2018-12-05T01:14:35.338Z,0
2018-12-05T01:15:35.316Z,0
2018-12-05T01:16:34.825Z,0
2018-12-05T01:17:35.306Z,0
2018-12-05T01:18:35.286Z,0
2018-12-05T01:19:35.309Z,0
2018-12-05T01:20:35.542Z,0
2018-12-05T01:21:34.778Z,0
2018-12-05T01:22:35.524Z,0
2018-12-05T01:23:35.272Z,0
2018-12-05T01:24:35.040Z,0
2018-12-05T01:25:35.245Z,0
2018-12-05T01:26:35.235Z,0
2018-12-05T01:27:34.981Z,0
2018-12-05T01:28:34.987Z,0
2018-12-05T01:29:35.491Z,0
2018-12-05T01:30:35.468Z,0
2018-12-05T01:31:34.962Z,0
2018-12-05T01:32:34.940Z,0
2018-12-05T01:33:35.197Z,0
2018-12-05T01:34:35.427Z,0
2018-12-05T01:35:35.183Z,0
2018-12-05T01:36:35.166Z,0
2018-12-05T01:37:35.420Z,0
2018-12-05T01:38:35.161Z,0
2018-12-05T01:39:34.881Z,0
2018-12-05T01:40:35.378Z,0
2018-12-05T01:41:35.138Z,0
2018-12-05T01:42:34.622Z,0
2018-12-05T01:43:34.866Z,0
2018-12-05T01:44:35.369Z,0
2018-12-05T01:45:35.092Z,0
2018-12-05T01:46:35.330Z,0
2018-12-05T01:47:35.081Z,0
2018-12-05T01:48:34.841Z,0
2018-12-05T01:49:35.324Z,0
2018-12-05T01:50:35.062Z,0
2018-12-05T01:51:35.294Z,0
2018-12-05T01:52:34.583Z,0
2018-12-05T01:53:34.803Z,0
2018-12-05T01:54:34.559Z,0
2018-12-05T01:55:35.041Z,0
2018-12-05T01:56:35.020Z,0
2018-12-05T01:57:35.023Z,0
2018-12-05T01:58:34.996Z,0
2018-12-05T01:59:34.764Z,0
2018-12-05T02:00:34.730Z,0
2018-12-05T02:01:34.996Z,0
2018-12-05T02:02:34.729Z,0
2018-12-05T02:03:35.219Z,0
2018-12-05T02:04:34.952Z,0
2018-12-05T02:05:34.702Z,0
2018-12-05T02:06:35.192Z,0
2018-12-05T02:07:34.940Z,0
2018-12-05T02:08:34.930Z,0
2018-12-05T02:09:34.690Z,0
2018-12-05T02:10:35.171Z,0
2018-12-05T02:11:34.897Z,0
2018-12-05T02:12:34.652Z,0
2018-12-05T02:13:35.149Z,0
2018-12-05T02:14:34.637Z,0
2018-12-05T02:15:34.629Z,0
2018-12-05T02:16:34.886Z,0
2018-12-05T02:17:34.872Z,0
2018-12-05T02:18:35.120Z,0
2018-12-05T02:19:34.842Z,0
2018-12-05T02:20:35.091Z,0
2018-12-05T02:21:34.898Z,0
2018-12-05T02:22:34.834Z,0
2018-12-05T02:23:34.820Z,0
2018-12-05T02:24:34.807Z,0
2018-12-05T02:25:34.587Z,0
2018-12-05T02:26:35.050Z,0
2018-12-05T02:27:35.026Z,0
2018-12-05T02:28:35.028Z,0
2018-12-05T02:29:34.778Z,0
2018-12-05T02:30:35.013Z,0
2018-12-05T02:31:34.776Z,0
2018-12-05T02:32:34.801Z,0
2018-12-05T02:33:34.751Z,0
2018-12-05T02:34:34.749Z,0
2018-12-05T02:35:34.746Z,0
2018-12-05T02:36:34.975Z,0
2018-12-05T02:37:34.727Z,0
2018-12-05T02:38:34.971Z,0
2018-12-05T02:39:34.802Z,0
2018-12-05T02:40:34.701Z,0
2018-12-05T02:41:34.931Z,0
2018-12-05T02:42:34.676Z,0
2018-12-05T02:43:34.679Z,0
2018-12-05T02:44:34.681Z,0
2018-12-05T02:45:34.655Z,0
2018-12-05T02:46:34.396Z,0
2018-12-05T02:47:34.413Z,0
2018-12-05T02:48:34.906Z,0
2018-12-05T02:49:34.635Z,0
2018-12-05T02:50:34.366Z,0
2018-12-05T02:51:34.896Z,0
2018-12-05T02:52:34.608Z,0
2018-12-05T02:53:34.345Z,0
2018-12-05T02:54:34.857Z,0
2018-12-05T02:55:34.835Z,0
2018-12-05T02:56:34.572Z,0
2018-12-05T02:57:34.811Z,0
2018-12-05T02:58:34.550Z,0
2018-12-05T02:59:34.307Z,0
2018-12-05T03:00:34.304Z,0
2018-12-05T03:01:34.800Z,0
2018-12-05T03:02:34.529Z,0
2018-12-05T03:03:34.556Z,0
2018-12-05T03:04:34.285Z,0
2018-12-05T03:05:34.497Z,0
2018-12-05T03:06:34.483Z,0
2018-12-05T03:07:34.259Z,0
2018-12-05T03:08:34.251Z,0
2018-12-05T03:09:34.485Z,0
2018-12-05T03:10:34.239Z,0
2018-12-05T03:11:34.215Z,0
2018-12-05T03:12:34.452Z,0
2018-12-05T03:13:34.709Z,0
2018-12-05T03:14:34.179Z,0
2018-12-05T03:15:34.335Z,0
2018-12-05T03:16:34.414Z,0
2018-12-05T03:17:34.174Z,0
2018-12-05T03:18:34.409Z,0
2018-12-05T03:19:34.132Z,0
2018-12-05T03:20:34.443Z,0
2018-12-05T03:21:34.365Z,0
2018-12-05T03:22:34.367Z,0
2018-12-05T03:23:34.370Z,0
2018-12-05T03:24:34.111Z,0
2018-12-05T03:25:34.585Z,0
2018-12-05T03:26:34.329Z,0
2018-12-05T03:27:34.325Z,0
2018-12-05T03:28:34.139Z,0
2018-12-05T03:29:34.310Z,0
2018-12-05T03:30:34.335Z,0
2018-12-05T03:31:34.317Z,0
2018-12-05T03:32:34.569Z,0
2018-12-05T03:33:34.531Z,0
2018-12-05T03:34:34.288Z,0
2018-12-05T03:35:34.248Z,0
2018-12-05T03:36:34.488Z,0
2018-12-05T03:37:34.506Z,0
2018-12-05T03:38:34.481Z,0
2018-12-05T03:39:34.000Z,0
2018-12-05T03:40:33.962Z,0
2018-12-05T03:41:34.216Z,0
2018-12-05T03:42:33.962Z,0
2018-12-05T03:43:34.196Z,0
2018-12-05T03:44:34.980Z,0
2018-12-05T03:45:36.331Z,0
2018-12-05T03:46:34.175Z,0
2018-12-05T03:47:33.927Z,0
2018-12-05T03:48:34.406Z,0
2018-12-05T03:49:34.226Z,0
2018-12-05T03:50:34.400Z,0
2018-12-05T03:51:33.880Z,0
2018-12-05T03:52:34.144Z,0
2018-12-05T03:53:34.143Z,0
2018-12-05T03:54:34.350Z,0
2018-12-05T03:55:34.093Z,0
2018-12-05T03:56:34.341Z,0
2018-12-05T03:57:34.399Z,0
2018-12-05T03:58:34.346Z,0
2018-12-05T03:59:34.067Z,0
2018-12-05T04:00:34.046Z,0
2018-12-05T04:01:34.045Z,0
2018-12-05T04:02:34.292Z,0
2018-12-05T04:03:34.282Z,0
2018-12-05T04:04:34.045Z,0
2018-12-05T04:05:33.765Z,0
2018-12-05T04:06:33.745Z,0
2018-12-05T04:07:34.260Z,0
2018-12-05T04:08:34.266Z,0
2018-12-05T04:09:33.742Z,0
2018-12-05T04:10:33.729Z,0
2018-12-05T04:11:34.310Z,0
2018-12-05T04:12:42.606Z,0
2018-12-05T04:13:34.228Z,0
2018-12-05T04:14:33.960Z,0
2018-12-05T04:15:33.926Z,0
2018-12-05T04:16:34.173Z,0
2018-12-05T04:17:33.922Z,0
2018-12-05T04:18:33.921Z,0
2018-12-05T04:19:34.171Z,0
2018-12-05T04:20:33.653Z,0
2018-12-05T04:21:34.134Z,0
2018-12-05T04:22:34.158Z,0
2018-12-05T04:23:33.951Z,0
2018-12-05T04:24:33.627Z,0
2018-12-05T04:25:33.875Z,0
2018-12-05T04:26:34.128Z,0
2018-12-05T04:27:34.091Z,0
2018-12-05T04:28:33.730Z,0
2018-12-05T04:29:34.077Z,0
2018-12-05T04:30:33.834Z,0
2018-12-05T04:31:33.567Z,0
2018-12-05T04:32:34.063Z,0
2018-12-05T04:33:33.801Z,0
2018-12-05T04:34:33.600Z,0
2018-12-05T04:35:34.026Z,0
2018-12-05T04:36:34.036Z,0
2018-12-05T04:37:33.774Z,0
2018-12-05T04:38:33.518Z,0
2018-12-05T04:39:34.024Z,0
2018-12-05T04:40:33.515Z,0
2018-12-05T04:41:33.728Z,0
2018-12-05T04:42:33.994Z,0
2018-12-05T04:43:34.049Z,0
2018-12-05T04:44:33.489Z,0
2018-12-05T04:45:33.953Z,0
2018-12-05T04:46:33.954Z,0
2018-12-05T04:47:33.939Z,0
2018-12-05T04:48:33.673Z,0
2018-12-05T04:49:33.686Z,0
2018-12-05T04:50:34.439Z,0
2018-12-05T04:51:33.920Z,0
2018-12-05T04:52:33.668Z,0
2018-12-05T04:53:33.887Z,0
2018-12-05T04:54:33.378Z,0
2018-12-05T04:55:33.619Z,0
2018-12-05T04:56:33.703Z,0
2018-12-05T04:57:33.854Z,0
2018-12-05T04:58:33.853Z,0
2018-12-05T04:59:33.853Z,0
2018-12-05T05:00:33.369Z,0
2018-12-05T05:01:33.583Z,0
2018-12-05T05:02:33.839Z,0
2018-12-05T05:03:33.594Z,0
2018-12-05T05:04:33.091Z,0
2018-12-05T05:05:33.549Z,0
2018-12-05T05:06:41.361Z,0
2018-12-05T05:07:33.803Z,0
2018-12-05T05:08:33.537Z,0
2018-12-05T05:09:33.532Z,0
2018-12-05T05:10:33.267Z,0
2018-12-05T05:11:33.272Z,0
2018-12-05T05:12:33.744Z,0
2018-12-05T05:13:33.255Z,0
2018-12-05T05:14:33.736Z,0
2018-12-05T05:15:33.471Z,0
2018-12-05T05:16:33.475Z,0
2018-12-05T05:17:33.703Z,0
2018-12-05T05:18:33.696Z,0
2018-12-05T05:19:33.456Z,0
2018-12-05T05:20:33.784Z,0
2018-12-05T05:21:33.436Z,0
2018-12-05T05:22:33.199Z,0
2018-12-05T05:23:33.416Z,0
2018-12-05T05:24:33.434Z,0
2018-12-05T05:25:33.161Z,0
2018-12-05T05:26:33.479Z,0
2018-12-05T05:27:33.426Z,0
2018-12-05T05:28:33.646Z,0
2018-12-05T05:29:33.159Z,0
2018-12-05T05:30:33.166Z,0
2018-12-05T05:31:33.386Z,0
2018-12-05T05:32:33.112Z,0
2018-12-05T05:33:33.666Z,0
2018-12-05T05:34:33.371Z,0
2018-12-05T05:35:33.343Z,0
2018-12-05T05:36:34.166Z,0
2018-12-05T05:37:33.324Z,0
2018-12-05T05:38:33.338Z,0
2018-12-05T05:39:33.325Z,0
2018-12-05T05:40:33.306Z,0
2018-12-05T05:41:33.562Z,0
2018-12-05T05:42:33.036Z,0
2018-12-05T05:43:33.532Z,0
2018-12-05T05:44:33.296Z,0
2018-12-05T05:45:33.256Z,0
2018-12-05T05:46:32.782Z,0
2018-12-05T05:47:33.485Z,0
2018-12-05T05:48:33.620Z,0
2018-12-05T05:49:33.469Z,0
2018-12-05T05:50:33.460Z,0
2018-12-05T05:51:33.214Z,0
2018-12-05T05:52:33.216Z,0
2018-12-05T05:53:33.182Z,0
2018-12-05T05:54:33.439Z,0
2018-12-05T05:55:33.412Z,0
2018-12-05T05:56:33.180Z,0
2018-12-05T05:57:33.185Z,0
2018-12-05T05:58:32.901Z,0
2018-12-05T05:59:33.405Z,0
2018-12-05T06:00:33.388Z,0
2018-12-05T06:01:33.393Z,0
2018-12-05T06:02:33.124Z,0
2018-12-05T06:03:33.393Z,0
2018-12-05T06:04:33.390Z,0
2018-12-05T06:05:33.118Z,0
2018-12-05T06:06:33.352Z,0
2018-12-05T06:07:33.082Z,0
2018-12-05T06:08:33.312Z,0
2018-12-05T06:09:33.307Z,0
2018-12-05T06:10:34.108Z,0
2018-12-05T06:11:33.293Z,0
2018-12-05T06:12:33.316Z,0
2018-12-05T06:13:33.316Z,0
2018-12-05T06:14:33.271Z,0
2018-12-05T06:15:33.022Z,0
2018-12-05T06:16:33.001Z,0
2018-12-05T06:17:32.995Z,0
2018-12-05T06:18:32.755Z,0
2018-12-05T06:19:33.251Z,0
2018-12-05T06:20:32.739Z,0
2018-12-05T06:21:34.292Z,0
2018-12-05T06:22:32.570Z,0
2018-12-05T06:23:33.207Z,0
2018-12-05T06:24:33.330Z,0
2018-12-05T06:25:33.208Z,0
2018-12-05T06:26:32.958Z,0
2018-12-05T06:27:33.172Z,0
2018-12-05T06:28:33.162Z,4
2018-12-05T06:29:32.921Z,4
2018-12-05T06:30:33.174Z,0
2018-12-05T06:31:32.645Z,4
2018-12-05T06:32:33.134Z,4
2018-12-05T06:33:33.344Z,4
2018-12-05T06:34:32.883Z,4
2018-12-05T06:35:32.631Z,4
2018-12-05T06:36:32.873Z,4
2018-12-05T06:37:32.869Z,8
2018-12-05T06:38:32.622Z,8
2018-12-05T06:39:33.101Z,8
2018-12-05T06:40:33.084Z,8
2018-12-05T06:41:33.617Z,12
2018-12-05T06:42:33.084Z,12
2018-12-05T06:43:32.557Z,16
2018-12-05T06:44:32.557Z,16
2018-12-05T06:45:32.797Z,20
2018-12-05T06:46:32.545Z,20
2018-12-05T06:47:32.795Z,24
2018-12-05T06:48:32.525Z,24
2018-12-05T06:49:32.567Z,28
2018-12-05T06:50:32.765Z,32
2018-12-05T06:51:33.145Z,36
2018-12-05T06:52:32.795Z,44
2018-12-05T06:53:32.765Z,44
2018-12-05T06:54:32.756Z,48
2018-12-05T06:55:38.901Z,52
2018-12-05T06:56:32.492Z,60
2018-12-05T06:57:32.220Z,64
2018-12-05T06:58:32.711Z,72
2018-12-05T06:59:32.727Z,80
2018-12-05T07:00:32.731Z,84
2018-12-05T07:01:32.426Z,92
2018-12-05T07:02:32.417Z,96
2018-12-05T07:03:32.913Z,100
2018-12-05T07:04:32.897Z,108
2018-12-05T07:05:32.649Z,116
2018-12-05T07:06:32.888Z,120
2018-12-05T07:07:32.903Z,124
2018-12-05T07:08:32.633Z,132
2018-12-05T07:09:32.380Z,144
2018-12-05T07:10:32.356Z,148
2018-12-05T07:11:32.352Z,156
2018-12-05T07:12:32.588Z,164
2018-12-05T07:13:32.092Z,172
2018-12-05T07:14:32.109Z,176
2018-12-05T07:15:32.571Z,180
2018-12-05T07:16:32.320Z,188
2018-12-05T07:17:32.128Z,196
2018-12-05T07:18:34.052Z,204
2018-12-05T07:19:32.326Z,220
2018-12-05T07:20:32.055Z,236
2018-12-05T07:21:32.784Z,244
2018-12-05T07:22:32.071Z,252
2018-12-05T07:23:32.792Z,264
2018-12-05T07:24:32.510Z,284
2018-12-05T07:25:32.511Z,316
2018-12-05T07:26:32.763Z,344
2018-12-05T07:27:32.797Z,364
2018-12-05T07:28:32.238Z,392
2018-12-05T07:29:32.216Z,416
2018-12-05T07:30:36.178Z,432
2018-12-05T07:31:32.727Z,452
2018-12-05T07:32:32.709Z,468
2018-12-05T07:33:32.459Z,488
2018-12-05T07:34:32.454Z,512
2018-12-05T07:35:32.437Z,536
2018-12-05T07:36:32.359Z,568
2018-12-05T07:37:32.410Z,600
2018-12-05T07:38:32.417Z,632
2018-12-05T07:39:32.417Z,664
2018-12-05T07:40:32.409Z,708
2018-12-05T07:41:32.157Z,756
2018-12-05T07:42:32.376Z,800
2018-12-05T07:43:32.365Z,836
2018-12-05T07:44:32.613Z,868
2018-12-05T07:45:32.399Z,900
2018-12-05T07:46:32.107Z,940
2018-12-05T07:47:31.847Z,984
2018-12-05T07:48:32.122Z,1032
2018-12-05T07:49:32.359Z,1072
2018-12-05T07:50:32.330Z,1104
2018-12-05T07:51:32.341Z,1128
2018-12-05T07:52:32.549Z,1152
2018-12-05T07:53:32.557Z,1184
2018-12-05T07:54:32.553Z,1224
2018-12-05T07:55:32.285Z,1244
2018-12-05T07:56:32.055Z,1268
2018-12-05T07:57:32.531Z,1296
2018-12-05T07:58:32.274Z,1296
2018-12-05T07:59:32.262Z,1280
2018-12-05T08:00:32.119Z,1248
2018-12-05T08:01:31.994Z,1228
2018-12-05T08:02:32.485Z,1224
2018-12-05T08:03:32.244Z,1204
2018-12-05T08:04:31.976Z,1184
2018-12-05T08:05:31.967Z,1164
2018-12-05T08:06:32.448Z,1172
2018-12-05T08:07:32.199Z,1180
2018-12-05T08:08:32.211Z,1168
2018-12-05T08:09:32.182Z,1140
2018-12-05T08:10:32.173Z,1124
2018-12-05T08:11:32.427Z,1116
2018-12-05T08:12:32.159Z,1104
2018-12-05T08:13:32.449Z,1096
2018-12-05T08:14:32.156Z,1084
2018-12-05T08:15:32.164Z,1072
2018-12-05T08:16:31.641Z,1044
2018-12-05T08:17:32.130Z,1024
2018-12-05T08:18:32.384Z,1044
2018-12-05T08:19:32.111Z,1060
2018-12-05T08:20:32.108Z,1076
2018-12-05T08:21:31.876Z,1076
2018-12-05T08:22:32.383Z,1068
2018-12-05T08:23:32.112Z,1060
2018-12-05T08:24:31.842Z,1048
2018-12-05T08:25:32.085Z,1044
2018-12-05T08:26:32.324Z,1036
2018-12-05T08:27:32.087Z,1024
2018-12-05T08:28:32.081Z,1024
2018-12-05T08:29:31.800Z,1028
2018-12-05T08:30:32.071Z,1024
2018-12-05T08:31:32.061Z,1024
2018-12-05T08:32:31.809Z,1040
2018-12-05T08:33:31.788Z,1044
2018-12-05T08:34:32.101Z,1048
2018-12-05T08:35:32.036Z,1052
2018-12-05T08:36:31.751Z,1064
2018-12-05T08:37:32.243Z,1092
2018-12-05T08:38:31.764Z,1132
2018-12-05T08:39:31.999Z,1176
2018-12-05T08:40:32.239Z,1212
2018-12-05T08:41:31.740Z,1248
2018-12-05T08:42:31.971Z,1284
2018-12-05T08:43:31.964Z,1332
2018-12-05T08:44:32.202Z,1404
2018-12-05T08:45:32.207Z,1508
2018-12-05T08:46:31.724Z,1620
2018-12-05T08:47:38.546Z,1720
2018-12-05T08:48:31.714Z,1760
2018-12-05T08:49:31.695Z,1744
2018-12-05T08:50:31.950Z,1676
2018-12-05T08:51:31.928Z,1640
2018-12-05T08:52:31.912Z,1660
2018-12-05T08:53:32.148Z,1684
2018-12-05T08:54:31.641Z,1716
2018-12-05T08:55:31.877Z,1748
2018-12-05T08:56:31.652Z,1780
2018-12-05T08:57:31.888Z,1824
2018-12-05T08:58:31.865Z,1896
2018-12-05T08:59:31.854Z,1972
2018-12-05T09:00:31.612Z,2036
2018-12-05T09:01:31.833Z,2100
2018-12-05T09:02:31.844Z,2180
2018-12-05T09:03:32.081Z,2268
2018-12-05T09:04:31.582Z,2364
2018-12-05T09:05:31.837Z,2472
2018-12-05T09:06:31.655Z,2612
2018-12-05T09:07:32.076Z,2780
2018-12-05T09:08:31.817Z,2944
2018-12-05T09:09:31.547Z,3092
2018-12-05T09:10:32.065Z,3220
2018-12-05T09:11:32.131Z,3324
2018-12-05T09:12:31.534Z,3356
2018-12-05T09:13:31.781Z,3400
2018-12-05T09:14:35.749Z,3436
2018-12-05T09:15:31.762Z,3460
2018-12-05T09:16:32.025Z,3496
2018-12-05T09:17:31.515Z,3512
2018-12-05T09:18:31.517Z,3500
2018-12-05T09:19:31.738Z,3492
2018-12-05T09:20:31.768Z,3540
2018-12-05T09:21:31.497Z,3640
2018-12-05T09:22:31.482Z,3748
2018-12-05T09:23:31.977Z,3836
2018-12-05T09:24:31.712Z,3900
2018-12-05T09:25:31.707Z,3916
2018-12-05T09:26:31.701Z,3904
2018-12-05T09:27:31.752Z,3880
2018-12-05T09:28:31.698Z,3864
2018-12-05T09:29:31.690Z,3868
2018-12-05T09:30:31.447Z,3900
2018-12-05T09:31:31.424Z,3940
2018-12-05T09:32:31.965Z,3980
2018-12-05T09:33:31.913Z,4004
2018-12-05T09:34:31.903Z,4032
2018-12-05T09:35:31.423Z,4016
2018-12-05T09:36:31.644Z,3980
2018-12-05T09:37:31.146Z,3984
2018-12-05T09:38:31.391Z,4032
2018-12-05T09:39:31.381Z,4124
2018-12-05T09:40:31.667Z,4236
2018-12-05T09:41:31.886Z,4344
2018-12-05T09:42:31.377Z,4452
2018-12-05T09:43:31.904Z,4528
2018-12-05T09:44:31.605Z,4552
2018-12-05T09:45:31.110Z,4560
2018-12-05T09:46:31.848Z,4564
2018-12-05T09:47:31.863Z,4572
2018-12-05T09:48:31.833Z,4572
2018-12-05T09:49:31.831Z,4548
2018-12-05T09:50:31.832Z,4480
2018-12-05T09:51:31.073Z,4376
2018-12-05T09:52:31.832Z,4180
2018-12-05T09:53:32.001Z,4012
2018-12-05T09:54:31.569Z,3856
2018-12-05T09:55:31.318Z,3716
2018-12-05T09:56:31.308Z,3608
2018-12-05T09:57:31.786Z,3540
2018-12-05T09:58:31.291Z,3532
2018-12-05T09:59:31.296Z,3472
2018-12-05T10:00:31.286Z,3476
2018-12-05T10:01:31.786Z,3516
2018-12-05T10:02:31.758Z,3560
2018-12-05T10:03:31.515Z,3584
2018-12-05T10:04:31.510Z,3548
2018-12-05T10:05:31.757Z,3484
2018-12-05T10:06:31.943Z,3504
2018-12-05T10:07:31.256Z,3564
2018-12-05T10:08:31.488Z,3624
2018-12-05T10:09:31.233Z,3680
2018-12-05T10:10:31.480Z,3724
2018-12-05T10:11:31.481Z,3772
2018-12-05T10:12:31.715Z,3816
2018-12-05T10:13:31.215Z,3872
2018-12-05T10:14:31.541Z,3972
2018-12-05T10:15:31.256Z,4116
2018-12-05T10:16:31.215Z,4268
2018-12-05T10:17:31.456Z,4380
2018-12-05T10:18:31.682Z,4472
2018-12-05T10:19:31.213Z,4572
2018-12-05T10:20:31.432Z,4616
2018-12-05T10:21:31.664Z,4700
2018-12-05T10:22:31.177Z,4792
2018-12-05T10:23:31.658Z,4832
2018-12-05T10:24:31.460Z,4796
2018-12-05T10:25:31.453Z,4740
2018-12-05T10:26:31.399Z,4628
2018-12-05T10:27:31.642Z,4500
2018-12-05T10:28:31.386Z,4368
2018-12-05T10:29:31.627Z,4216
2018-12-05T10:30:31.121Z,4096
2018-12-05T10:31:30.886Z,4020
2018-12-05T10:32:31.616Z,4012
2018-12-05T10:33:31.607Z,4056
2018-12-05T10:34:31.145Z,4104
2018-12-05T10:35:31.368Z,4132
2018-12-05T10:36:31.499Z,4148
2018-12-05T10:37:30.949Z,4168
2018-12-05T10:38:31.589Z,4220
2018-12-05T10:39:31.582Z,4284
2018-12-05T10:40:31.345Z,4388
2018-12-05T10:41:31.572Z,4508
2018-12-05T10:42:31.567Z,4572
2018-12-05T10:43:30.852Z,4596
2018-12-05T10:44:31.566Z,4600
2018-12-05T10:45:31.315Z,4616
2018-12-05T10:46:31.551Z,4624
2018-12-05T10:47:31.528Z,4620
2018-12-05T10:48:31.573Z,4596
2018-12-05T10:49:31.539Z,4592
2018-12-05T10:50:31.575Z,4584
2018-12-05T10:51:31.310Z,4560
2018-12-05T10:52:31.525Z,4528
2018-12-05T10:53:32.082Z,4520
2018-12-05T10:54:31.263Z,4512
2018-12-05T10:55:31.268Z,4516
2018-12-05T10:56:31.269Z,4508
2018-12-05T10:57:31.321Z,4484
2018-12-05T10:58:31.026Z,4452
2018-12-05T10:59:31.018Z,4432
2018-12-05T11:00:31.234Z,4428
2018-12-05T11:01:31.279Z,4420
2018-12-05T11:02:31.508Z,4396
2018-12-05T11:03:31.469Z,4376
2018-12-05T11:04:31.503Z,4380
2018-12-05T11:05:31.219Z,4412
2018-12-05T11:06:31.226Z,4464
2018-12-05T11:07:31.201Z,4532
2018-12-05T11:08:30.702Z,4592
2018-12-05T11:09:31.219Z,4616
2018-12-05T11:10:31.440Z,4584
2018-12-05T11:11:31.171Z,4528
2018-12-05T11:12:31.435Z,4484
2018-12-05T11:13:30.680Z,4452
2018-12-05T11:14:30.929Z,4436
2018-12-05T11:15:31.402Z,4452
2018-12-05T11:16:31.175Z,4476
2018-12-05T11:17:31.160Z,4500
2018-12-05T11:18:32.854Z,4528
2018-12-05T11:19:31.403Z,4552
2018-12-05T11:20:31.148Z,4552
2018-12-05T11:21:31.127Z,4560
2018-12-05T11:22:31.419Z,4576
2018-12-05T11:23:31.190Z,4596
2018-12-05T11:24:31.375Z,4604
2018-12-05T11:25:31.173Z,4608
2018-12-05T11:26:31.122Z,4612
2018-12-05T11:27:30.863Z,4616
2018-12-05T11:28:31.088Z,4600
2018-12-05T11:29:31.127Z,4588
2018-12-05T11:30:31.356Z,4584
2018-12-05T11:31:31.329Z,4596
2018-12-05T11:32:30.641Z,4612
2018-12-05T11:33:31.099Z,4628
2018-12-05T11:34:31.294Z,4640
2018-12-05T11:35:31.339Z,4636
2018-12-05T11:36:30.825Z,4620
2018-12-05T11:37:30.880Z,4604
2018-12-05T11:38:30.837Z,4604
2018-12-05T11:39:30.811Z,4600
2018-12-05T11:40:31.052Z,4584
2018-12-05T11:41:32.695Z,4540
2018-12-05T11:42:31.041Z,4520
2018-12-05T11:43:31.051Z,4520
2018-12-05T11:44:31.291Z,4532
2018-12-05T11:45:31.024Z,4540
2018-12-05T11:46:31.037Z,4552
2018-12-05T11:47:31.018Z,4560
2018-12-05T11:48:31.010Z,4580
2018-12-05T11:49:30.507Z,4612
2018-12-05T11:50:31.250Z,4624
2018-12-05T11:51:31.007Z,4628
2018-12-05T11:52:30.804Z,4616
2018-12-05T11:53:30.747Z,4608
2018-12-05T11:54:31.000Z,4604
2018-12-05T11:55:30.999Z,4608
2018-12-05T11:56:31.249Z,4616
2018-12-05T11:57:31.027Z,4644
2018-12-05T11:58:30.728Z,4676
2018-12-05T11:59:30.987Z,4708
2018-12-05T12:00:31.006Z,4740
2018-12-05T12:01:31.001Z,4776
2018-12-05T12:02:31.205Z,4808
2018-12-05T12:03:31.209Z,4848
2018-12-05T12:04:31.204Z,4860
2018-12-05T12:05:31.958Z,4908
2018-12-05T12:06:30.945Z,4936
2018-12-05T12:07:30.926Z,4988
2018-12-05T12:08:31.169Z,5208
2018-12-05T12:09:31.173Z,5000
2018-12-05T12:10:30.685Z,5064
2018-12-05T12:11:31.171Z,5344
2018-12-05T12:12:30.677Z,5224
2018-12-05T12:13:31.151Z,5152
2018-12-05T12:14:30.896Z,5320
2018-12-05T12:15:31.156Z,6064
2018-12-05T12:16:30.909Z,6204
2018-12-05T12:17:30.938Z,6160
2018-12-05T12:18:31.145Z,6180
2018-12-05T12:19:30.637Z,6244
2018-12-05T12:20:30.928Z,6252
2018-12-05T12:21:31.121Z,6224
2018-12-05T12:22:30.883Z,6156
2018-12-05T12:23:31.128Z,6120
2018-12-05T12:24:37.406Z,6032
2018-12-05T12:25:31.119Z,5956
2018-12-05T12:26:37.875Z,5864
2018-12-05T12:27:30.870Z,5800
2018-12-05T12:28:30.842Z,5088
2018-12-05T12:29:30.842Z,5048
2018-12-05T12:30:30.846Z,4804
2018-12-05T12:31:30.838Z,4832
2018-12-05T12:32:30.835Z,4444
2018-12-05T12:33:30.836Z,4320
2018-12-05T12:34:31.070Z,4268
2018-12-05T12:35:31.086Z,4228
2018-12-05T12:36:31.076Z,4208
2018-12-05T12:37:30.826Z,4184
2018-12-05T12:38:30.833Z,4144
2018-12-05T12:39:31.054Z,4104
2018-12-05T12:40:30.818Z,4084
2018-12-05T12:41:30.808Z,4104
2018-12-05T12:42:31.049Z,4140
2018-12-05T12:43:30.533Z,4184
2018-12-05T12:44:30.783Z,4720
2018-12-05T12:45:30.527Z,4692
2018-12-05T12:46:30.528Z,4468
2018-12-05T12:47:31.017Z,4368
2018-12-05T12:48:31.010Z,4652
2018-12-05T12:49:30.527Z,4748
2018-12-05T12:50:30.766Z,4136
2018-12-05T12:51:30.997Z,4428
2018-12-05T12:52:30.832Z,4008
2018-12-05T12:53:33.436Z,4080
2018-12-05T12:54:30.751Z,4020
2018-12-05T12:55:30.758Z,4340
2018-12-05T12:56:31.891Z,4556
2018-12-05T12:57:30.499Z,4612
2018-12-05T12:58:30.718Z,4560
2018-12-05T12:59:30.963Z,4412
2018-12-05T13:00:30.482Z,4416
2018-12-05T13:01:30.724Z,4388
2018-12-05T13:02:30.785Z,4296
2018-12-05T13:03:30.700Z,4160
2018-12-05T13:04:30.469Z,3992
2018-12-05T13:05:30.705Z,3928
2018-12-05T13:06:30.709Z,3828
2018-12-05T13:07:30.706Z,3796
2018-12-05T13:08:30.752Z,3752
2018-12-05T13:09:30.920Z,3708
2018-12-05T13:10:30.704Z,3668
2018-12-05T13:11:30.668Z,3604
2018-12-05T13:12:30.184Z,3512
2018-12-05T13:13:30.670Z,3368
2018-12-05T13:14:30.899Z,3236
2018-12-05T13:15:30.153Z,2996
2018-12-05T13:16:30.643Z,3224
2018-12-05T13:17:30.634Z,3024
2018-12-05T13:18:30.394Z,3048
2018-12-05T13:19:30.775Z,2988
2018-12-05T13:20:30.641Z,2864
2018-12-05T13:21:30.647Z,2768
2018-12-05T13:22:30.617Z,2768
2018-12-05T13:23:30.357Z,2816
2018-12-05T13:24:30.621Z,2724
2018-12-05T13:25:30.358Z,2844
2018-12-05T13:26:30.587Z,2684
2018-12-05T13:27:30.339Z,2652
2018-12-05T13:28:30.101Z,2672
2018-12-05T13:29:30.590Z,2684
2018-12-05T13:30:30.578Z,2696
2018-12-05T13:31:30.606Z,2656
2018-12-05T13:32:30.394Z,2628
2018-12-05T13:33:30.574Z,2612
2018-12-05T13:34:30.351Z,2572
2018-12-05T13:35:30.846Z,2560
2018-12-05T13:36:30.822Z,2588
2018-12-05T13:37:30.550Z,2556
2018-12-05T13:38:30.549Z,2540
2018-12-05T13:39:30.792Z,2532
2018-12-05T13:40:30.282Z,2572
2018-12-05T13:41:30.288Z,2560
2018-12-05T13:42:30.525Z,2628
2018-12-05T13:43:30.530Z,2720
2018-12-05T13:44:30.283Z,2744
2018-12-05T13:45:30.535Z,2736
2018-12-05T13:46:37.240Z,2716
2018-12-05T13:47:30.250Z,2696
2018-12-05T13:48:30.745Z,2688
2018-12-05T13:49:31.165Z,2724
2018-12-05T13:50:30.476Z,2736
2018-12-05T13:51:30.241Z,2688
2018-12-05T13:52:29.972Z,2624
2018-12-05T13:53:30.471Z,2568
2018-12-05T13:54:30.464Z,2520
2018-12-05T13:55:30.747Z,2456
2018-12-05T13:56:30.441Z,2416
2018-12-05T13:57:30.198Z,2380
2018-12-05T13:58:30.501Z,2340
2018-12-05T13:59:30.693Z,2308
2018-12-05T14:00:30.177Z,2284
2018-12-05T14:01:30.440Z,2268